createdAt,value
2022-10-11T00:14:55.354Z,1.5
2022-10-11T00:30:37.725Z,1.7
2022-10-11T00:46:20.349Z,1.6
2022-10-11T01:02:02.983Z,1.5
2022-10-11T01:17:45.948Z,1.8
2022-10-11T01:33:28.770Z,1.8
2022-10-11T01:49:11.831Z,1.8
2022-10-11T02:04:54.037Z,3.1
2022-10-11T02:20:37.115Z,2.09
2022-10-11T02:36:19.654Z,2.3
2022-10-11T02:52:02.167Z,2.6
2022-10-11T03:07:44.713Z,2.4
2022-10-11T03:23:27.493Z,3
2022-10-11T03:39:09.869Z,2.7
2022-10-11T03:54:52.541Z,2.7
2022-10-11T04:10:34.785Z,3.5
2022-10-11T04:26:17.584Z,3.3
2022-10-11T04:42:00.519Z,4.4
2022-10-11T04:57:43.424Z,4.6
2022-10-11T05:13:25.670Z,5.7
2022-10-11T05:29:08.019Z,6.6
2022-10-11T05:44:50.235Z,7.6
2022-10-11T06:00:32.700Z,7.9
2022-10-11T06:16:15.408Z,8.2
2022-10-11T06:31:58.564Z,7.8
2022-10-11T06:47:41.070Z,7.6
2022-10-11T07:03:23.196Z,6.7
2022-10-11T07:19:05.993Z,5.9
2022-10-11T07:34:48.612Z,4.8
2022-10-11T07:50:31.089Z,3.8
2022-10-11T08:06:13.735Z,7.3
2022-10-11T08:21:55.910Z,2.2
2022-10-11T08:37:38.188Z,2.8
2022-10-11T08:53:20.322Z,2.3
2022-10-11T09:09:02.659Z,1.9
2022-10-11T09:24:44.759Z,1.7
2022-10-11T09:40:27.772Z,1.3
2022-10-11T09:56:10.037Z,1.3
2022-10-11T10:11:52.934Z,1.2
2022-10-11T10:27:35.159Z,1.4
2022-10-11T10:43:17.783Z,2
2022-10-11T10:59:00.655Z,2.9
2022-10-11T11:14:42.859Z,9
2022-10-11T11:30:25.396Z,2.5
2022-10-11T11:46:08.025Z,3.4
2022-10-11T12:01:50.269Z,1.5
2022-10-11T12:02:37.543Z,1.6
2022-10-11T12:18:20.075Z,1.3
2022-10-11T12:34:02.371Z,1.2
2022-10-11T12:49:45.282Z,1.4
2022-10-11T13:05:27.666Z,1.1
2022-10-11T13:21:10.666Z,1.4
2022-10-11T13:36:52.757Z,1.2
2022-10-11T13:52:35.177Z,1.2
2022-10-11T14:08:17.749Z,1.6
2022-10-11T14:23:59.922Z,1.6
2022-10-11T14:39:42.351Z,1.3
2022-10-11T14:55:25.161Z,1.5
2022-10-11T15:11:07.489Z,1.6
2022-10-11T15:26:49.738Z,1.5
2022-10-11T15:42:32.368Z,2.09
2022-10-11T15:58:15.020Z,3.8
2022-10-11T16:13:57.144Z,7
2022-10-11T16:29:39.995Z,3.7
2022-10-11T16:45:23.063Z,6.2
2022-10-11T17:01:05.485Z,4.6
2022-10-11T17:16:48.102Z,4.3
2022-10-11T17:32:30.819Z,5
2022-10-11T17:48:12.963Z,5.1
2022-10-11T18:03:55.648Z,6.6
2022-10-11T18:19:38.111Z,8.39
2022-10-11T18:35:20.250Z,9.8
2022-10-11T18:51:02.777Z,10.7
2022-10-11T19:06:45.724Z,12.1
2022-10-11T19:22:28.690Z,12.6
2022-10-11T19:38:11.212Z,23.2
2022-10-11T19:53:54.215Z,15.2
2022-10-11T20:09:36.595Z,14.7
2022-10-11T20:25:19.738Z,17.7
2022-10-11T20:41:01.879Z,17.79
2022-10-11T20:56:45.006Z,18.2
2022-10-11T21:12:27.860Z,18.79
2022-10-11T21:28:10.000Z,18.29
2022-10-11T21:43:53.022Z,16.79
2022-10-11T21:59:35.217Z,17.2
2022-10-11T22:15:18.244Z,13.5
2022-10-11T22:31:01.102Z,17.5
2022-10-11T22:46:43.230Z,14.4
2022-10-11T23:02:25.477Z,12.1
2022-10-11T23:18:08.537Z,11.9
2022-10-11T23:33:51.550Z,10.8
2022-10-11T23:49:34.056Z,12
